sensor_id;sensor_type;location;lat;lon;timestamp;temperature;humidity
15184;DHT22;7693;49.266;7.104;2022-11-20T06:42:39;7.80;99.90
15184;DHT22;7693;49.266;7.104;2022-11-20T06:45:05;7.80;99.90
15184;DHT22;7693;49.266;7.104;2022-11-20T06:47:31;7.80;99.90
15184;DHT22;7693;49.266;7.104;2022-11-20T06:49:56;7.80;99.90
15184;DHT22;7693;49.266;7.104;2022-11-20T06:52:22;7.80;99.90
15184;DHT22;7693;49.266;7.104;2022-11-20T06:54:47;7.90;99.90
15184;DHT22;7693;49.266;7.104;2022-11-20T06:57:13;7.90;99.90
15184;DHT22;7693;49.266;7.104;2022-11-20T06:59:38;7.90;99.90
15184;DHT22;7693;49.266;7.104;2022-11-20T07:02:04;7.90;99.90
15184;DHT22;7693;49.266;7.104;2022-11-20T07:04:29;7.90;99.90
15184;DHT22;7693;49.266;7.104;2022-11-20T07:06:55;7.90;99.90
15184;DHT22;7693;49.266;7.104;2022-11-20T07:09:20;7.90;99.90
15184;DHT22;7693;49.266;7.104;2022-11-20T07:11:46;8.00;99.90
15184;DHT22;7693;49.266;7.104;2022-11-20T07:14:11;8.00;99.90
15184;DHT22;7693;49.266;7.104;2022-11-20T07:16:37;8.00;99.90
15184;DHT22;7693;49.266;7.104;2022-11-20T07:19:02;8.00;99.90
15184;DHT22;7693;49.266;7.104;2022-11-20T07:21:28;8.00;99.90
15184;DHT22;7693;49.266;7.104;2022-11-20T07:23:54;8.00;99.90
15184;DHT22;7693;49.266;7.104;2022-11-20T07:26:19;8.00;99.90
15184;DHT22;7693;49.266;7.104;2022-11-20T07:28:45;8.00;99.90
15184;DHT22;7693;49.266;7.104;2022-11-20T07:31:11;8.00;99.90
15184;DHT22;7693;49.266;7.104;2022-11-20T07:33:38;8.10;99.90
15184;DHT22;7693;49.266;7.104;2022-11-20T07:36:04;8.10;99.90
15184;DHT22;7693;49.266;7.104;2022-11-20T07:38:30;8.10;99.90
15184;DHT22;7693;49.266;7.104;2022-11-20T07:40:56;8.20;99.90
15184;DHT22;7693;49.266;7.104;2022-11-20T07:43:23;8.10;99.90
15184;DHT22;7693;49.266;7.104;2022-11-20T07:45:49;8.20;99.90
15184;DHT22;7693;49.266;7.104;2022-11-20T07:48:15;8.20;99.90
15184;DHT22;7693;49.266;7.104;2022-11-20T07:50:40;8.20;99.90
15184;DHT22;7693;49.266;7.104;2022-11-20T07:53:06;8.20;99.90
15184;DHT22;7693;49.266;7.104;2022-11-20T07:55:32;8.20;99.90
15184;DHT22;7693;49.266;7.104;2022-11-20T07:57:58;8.20;99.90
15184;DHT22;7693;49.266;7.104;2022-11-20T08:00:25;8.20;99.90
15184;DHT22;7693;49.266;7.104;2022-11-20T08:02:51;8.20;99.90
15184;DHT22;7693;49.266;7.104;2022-11-20T08:05:16;8.20;99.90
15184;DHT22;7693;49.266;7.104;2022-11-20T08:07:43;8.20;99.90
15184;DHT22;7693;49.266;7.104;2022-11-20T08:10:11;8.20;99.90
15184;DHT22;7693;49.266;7.104;2022-11-20T08:12:47;8.20;99.90
15184;DHT22;7693;49.266;7.104;2022-11-20T08:15:31;8.20;99.90
15184;DHT22;7693;49.266;7.104;2022-11-20T08:18:05;8.20;99.90
15184;DHT22;7693;49.266;7.104;2022-11-20T08:20:31;8.20;99.90
15184;DHT22;7693;49.266;7.104;2022-11-20T08:23:05;8.10;99.90
15184;DHT22;7693;49.266;7.104;2022-11-20T08:25:32;8.10;99.90
15184;DHT22;7693;49.266;7.104;2022-11-20T08:28:02;8.10;99.90
15184;DHT22;7693;49.266;7.104;2022-11-20T08:30:29;8.10;99.90
15184;DHT22;7693;49.266;7.104;2022-11-20T08:32:59;8.10;99.90
15184;DHT22;7693;49.266;7.104;2022-11-20T08:35:26;8.20;99.90
15184;DHT22;7693;49.266;7.104;2022-11-20T08:37:51;8.10;99.90
15184;DHT22;7693;49.266;7.104;2022-11-20T08:40:17;8.10;99.90
15184;DHT22;7693;49.266;7.104;2022-11-20T08:42:50;8.10;99.90
15184;DHT22;7693;49.266;7.104;2022-11-20T08:45:17;8.10;99.90
15184;DHT22;7693;49.266;7.104;2022-11-20T08:47:44;8.10;99.90
15184;DHT22;7693;49.266;7.104;2022-11-20T08:50:11;8.10;99.90
15184;DHT22;7693;49.266;7.104;2022-11-20T08:52:37;8.10;99.90
15184;DHT22;7693;49.266;7.104;2022-11-20T08:55:04;8.10;99.90
15184;DHT22;7693;49.266;7.104;2022-11-20T08:57:35;8.10;99.90
15184;DHT22;7693;49.266;7.104;2022-11-20T09:00:02;8.10;99.90
15184;DHT22;7693;49.266;7.104;2022-11-20T09:02:28;8.20;99.90
15184;DHT22;7693;49.266;7.104;2022-11-20T09:04:53;8.20;99.90
15184;DHT22;7693;49.266;7.104;2022-11-20T09:07:19;8.20;99.90
15184;DHT22;7693;49.266;7.104;2022-11-20T09:09:45;8.20;99.90
15184;DHT22;7693;49.266;7.104;2022-11-20T09:12:11;8.20;99.90
15184;DHT22;7693;49.266;7.104;2022-11-20T09:14:36;8.20;99.90
15184;DHT22;7693;49.266;7.104;2022-11-20T09:17:02;8.20;99.90
15184;DHT22;7693;49.266;7.104;2022-11-20T09:19:28;8.20;99.90
15184;DHT22;7693;49.266;7.104;2022-11-20T09:21:53;8.20;99.90
15184;DHT22;7693;49.266;7.104;2022-11-20T09:24:19;8.20;99.90
15184;DHT22;7693;49.266;7.104;2022-11-20T09:26:46;8.20;99.90
15184;DHT22;7693;49.266;7.104;2022-11-20T09:29:12;8.30;99.90
15184;DHT22;7693;49.266;7.104;2022-11-20T09:31:38;8.30;99.90
15184;DHT22;7693;49.266;7.104;2022-11-20T09:34:03;8.30;99.90
15184;DHT22;7693;49.266;7.104;2022-11-20T09:36:29;8.30;99.90
15184;DHT22;7693;49.266;7.104;2022-11-20T09:38:54;8.30;99.90
15184;DHT22;7693;49.266;7.104;2022-11-20T09:47:13;8.30;99.90
15184;DHT22;7693;49.266;7.104;2022-11-20T09:50:14;8.40;99.90
15184;DHT22;7693;49.266;7.104;2022-11-20T09:53:07;8.40;99.90
15184;DHT22;7693;49.266;7.104;2022-11-20T09:55:36;8.50;99.90
15184;DHT22;7693;49.266;7.104;2022-11-20T09:58:06;8.60;99.90
15184;DHT22;7693;49.266;7.104;2022-11-20T10:00:32;8.70;99.90
15184;DHT22;7693;49.266;7.104;2022-11-20T10:03:17;8.70;99.90
15184;DHT22;7693;49.266;7.104;2022-11-20T10:05:54;8.80;99.90
15184;DHT22;7693;49.266;7.104;2022-11-20T10:08:23;8.80;99.90
15184;DHT22;7693;49.266;7.104;2022-11-20T10:11:10;8.90;99.90
15184;DHT22;7693;49.266;7.104;2022-11-20T10:16:40;8.80;99.90
15184;DHT22;7693;49.266;7.104;2022-11-20T10:19:30;8.80;99.90
15184;DHT22;7693;49.266;7.104;2022-11-20T10:25:06;8.80;99.90
15184;DHT22;7693;49.266;7.104;2022-11-20T10:30:16;8.80;99.90
15184;DHT22;7693;49.266;7.104;2022-11-20T10:32:46;8.80;99.90
15184;DHT22;7693;49.266;7.104;2022-11-20T10:35:23;8.80;99.90
15184;DHT22;7693;49.266;7.104;2022-11-20T10:37:58;8.80;99.90
15184;DHT22;7693;49.266;7.104;2022-11-20T10:40:33;8.80;99.90
15184;DHT22;7693;49.266;7.104;2022-11-20T10:43:04;8.80;99.90
15184;DHT22;7693;49.266;7.104;2022-11-20T10:45:44;8.70;99.90
15184;DHT22;7693;49.266;7.104;2022-11-20T10:48:16;8.70;99.90
15184;DHT22;7693;49.266;7.104;2022-11-20T10:59:38;8.80;99.90
15184;DHT22;7693;49.266;7.104;2022-11-20T11:05:08;8.80;99.90
15184;DHT22;7693;49.266;7.104;2022-11-20T11:07:38;8.90;99.90
15184;DHT22;7693;49.266;7.104;2022-11-20T11:10:18;8.90;99.90
15184;DHT22;7693;49.266;7.104;2022-11-20T17:21:33;6.90;99.90
15184;DHT22;7693;49.266;7.104;2022-11-20T17:24:08;6.90;99.90
15184;DHT22;7693;49.266;7.104;2022-11-20T17:26:35;6.90;99.90
15184;DHT22;7693;49.266;7.104;2022-11-20T17:29:07;6.90;99.90
15184;DHT22;7693;49.266;7.104;2022-11-20T17:31:35;6.90;99.90
15184;DHT22;7693;49.266;7.104;2022-11-20T17:34:03;6.90;99.90
15184;DHT22;7693;49.266;7.104;2022-11-20T17:36:29;7.00;99.90
15184;DHT22;7693;49.266;7.104;2022-11-20T17:38:55;7.00;99.90
15184;DHT22;7693;49.266;7.104;2022-11-20T17:41:25;7.00;99.90
15184;DHT22;7693;49.266;7.104;2022-11-20T17:43:58;7.00;99.90
15184;DHT22;7693;49.266;7.104;2022-11-20T17:46:29;7.00;99.90
15184;DHT22;7693;49.266;7.104;2022-11-20T17:48:57;7.00;99.90
15184;DHT22;7693;49.266;7.104;2022-11-20T17:51:27;7.00;99.90
15184;DHT22;7693;49.266;7.104;2022-11-20T17:53:56;7.00;99.90
15184;DHT22;7693;49.266;7.104;2022-11-20T17:56:22;7.00;99.90
15184;DHT22;7693;49.266;7.104;2022-11-20T17:59:09;7.00;99.90
15184;DHT22;7693;49.266;7.104;2022-11-20T18:01:35;7.00;99.90
15184;DHT22;7693;49.266;7.104;2022-11-20T18:04:01;7.00;99.90
15184;DHT22;7693;49.266;7.104;2022-11-20T18:06:28;7.00;99.90
15184;DHT22;7693;49.266;7.104;2022-11-20T18:08:54;7.00;99.90
15184;DHT22;7693;49.266;7.104;2022-11-20T18:11:22;7.00;99.90
15184;DHT22;7693;49.266;7.104;2022-11-20T18:13:53;7.00;99.90
15184;DHT22;7693;49.266;7.104;2022-11-20T18:16:40;6.90;99.90
15184;DHT22;7693;49.266;7.104;2022-11-20T18:19:08;6.90;99.90
15184;DHT22;7693;49.266;7.104;2022-11-20T18:21:34;6.90;99.90
15184;DHT22;7693;49.266;7.104;2022-11-20T18:23:59;6.90;99.90
15184;DHT22;7693;49.266;7.104;2022-11-20T18:26:25;6.90;99.90
15184;DHT22;7693;49.266;7.104;2022-11-20T18:28:51;6.90;99.90
15184;DHT22;7693;49.266;7.104;2022-11-20T18:31:17;6.90;99.90
15184;DHT22;7693;49.266;7.104;2022-11-20T18:33:42;6.90;99.90
15184;DHT22;7693;49.266;7.104;2022-11-20T18:38:41;6.90;99.90
15184;DHT22;7693;49.266;7.104;2022-11-20T18:41:12;6.90;99.90
15184;DHT22;7693;49.266;7.104;2022-11-20T18:44:03;6.90;99.90
15184;DHT22;7693;49.266;7.104;2022-11-20T18:46:47;6.90;99.90
15184;DHT22;7693;49.266;7.104;2022-11-20T18:49:13;6.90;99.90
15184;DHT22;7693;49.266;7.104;2022-11-20T18:51:40;6.90;99.90
15184;DHT22;7693;49.266;7.104;2022-11-20T18:54:06;7.00;99.90
15184;DHT22;7693;49.266;7.104;2022-11-20T18:56:32;7.00;99.90
15184;DHT22;7693;49.266;7.104;2022-11-20T18:58:59;7.00;99.90
15184;DHT22;7693;49.266;7.104;2022-11-20T19:01:25;7.00;99.90
15184;DHT22;7693;49.266;7.104;2022-11-20T19:03:51;7.10;99.90
15184;DHT22;7693;49.266;7.104;2022-11-20T19:06:17;7.10;99.90
15184;DHT22;7693;49.266;7.104;2022-11-20T19:08:42;7.10;99.90
15184;DHT22;7693;49.266;7.104;2022-11-20T19:11:10;7.10;99.90
15184;DHT22;7693;49.266;7.104;2022-11-20T19:13:36;7.00;99.90
15184;DHT22;7693;49.266;7.104;2022-11-20T19:16:06;7.00;99.90
15184;DHT22;7693;49.266;7.104;2022-11-20T19:18:32;7.00;99.90
15184;DHT22;7693;49.266;7.104;2022-11-20T19:21:09;7.00;99.90
15184;DHT22;7693;49.266;7.104;2022-11-20T19:23:35;7.00;99.90
15184;DHT22;7693;49.266;7.104;2022-11-20T19:26:00;7.00;99.90
15184;DHT22;7693;49.266;7.104;2022-11-20T19:28:30;7.00;99.90
15184;DHT22;7693;49.266;7.104;2022-11-20T19:31:04;7.00;99.90
15184;DHT22;7693;49.266;7.104;2022-11-20T19:33:30;7.00;99.90
15184;DHT22;7693;49.266;7.104;2022-11-20T19:35:56;7.00;99.90
15184;DHT22;7693;49.266;7.104;2022-11-20T19:38:23;7.00;99.90
15184;DHT22;7693;49.266;7.104;2022-11-20T19:40:49;7.00;99.90
15184;DHT22;7693;49.266;7.104;2022-11-20T19:43:15;7.10;99.90
15184;DHT22;7693;49.266;7.104;2022-11-20T19:45:40;7.10;99.90
15184;DHT22;7693;49.266;7.104;2022-11-20T19:48:06;7.10;99.90
15184;DHT22;7693;49.266;7.104;2022-11-20T19:50:31;7.20;99.90
15184;DHT22;7693;49.266;7.104;2022-11-20T19:52:57;7.20;99.90
15184;DHT22;7693;49.266;7.104;2022-11-20T19:55:22;7.20;99.90
15184;DHT22;7693;49.266;7.104;2022-11-20T19:57:48;7.20;99.90
15184;DHT22;7693;49.266;7.104;2022-11-20T20:00:14;7.30;99.90
15184;DHT22;7693;49.266;7.104;2022-11-20T20:02:40;7.30;99.90
15184;DHT22;7693;49.266;7.104;2022-11-20T20:05:06;7.30;99.90
15184;DHT22;7693;49.266;7.104;2022-11-20T20:07:31;7.30;99.90
15184;DHT22;7693;49.266;7.104;2022-11-20T20:09:57;7.30;99.90
15184;DHT22;7693;49.266;7.104;2022-11-20T21:41:12;7.00;99.90
15184;DHT22;7693;49.266;7.104;2022-11-20T21:43:38;7.10;99.90
15184;DHT22;7693;49.266;7.104;2022-11-20T21:46:12;7.10;99.90
15184;DHT22;7693;49.266;7.104;2022-11-20T21:48:39;7.10;99.90
15184;DHT22;7693;49.266;7.104;2022-11-20T21:51:10;7.10;99.90
15184;DHT22;7693;49.266;7.104;2022-11-20T21:53:36;7.10;99.90
15184;DHT22;7693;49.266;7.104;2022-11-20T21:56:02;7.10;99.90
15184;DHT22;7693;49.266;7.104;2022-11-20T21:58:29;7.20;99.90
15184;DHT22;7693;49.266;7.104;2022-11-20T22:00:55;7.20;99.90
15184;DHT22;7693;49.266;7.104;2022-11-20T22:03:21;7.20;99.90
15184;DHT22;7693;49.266;7.104;2022-11-20T22:05:55;7.20;99.90
15184;DHT22;7693;49.266;7.104;2022-11-20T22:08:22;7.30;99.90
15184;DHT22;7693;49.266;7.104;2022-11-20T22:10:58;7.30;99.90
15184;DHT22;7693;49.266;7.104;2022-11-20T22:13:25;7.30;99.90
15184;DHT22;7693;49.266;7.104;2022-11-20T22:16:09;7.30;99.90
15184;DHT22;7693;49.266;7.104;2022-11-20T22:18:35;7.30;99.90
15184;DHT22;7693;49.266;7.104;2022-11-20T22:21:05;7.30;99.90
15184;DHT22;7693;49.266;7.104;2022-11-20T22:23:34;7.30;99.90
15184;DHT22;7693;49.266;7.104;2022-11-20T22:26:08;7.40;99.90
15184;DHT22;7693;49.266;7.104;2022-11-20T22:28:34;7.30;99.90
15184;DHT22;7693;49.266;7.104;2022-11-20T22:31:01;7.30;99.90
15184;DHT22;7693;49.266;7.104;2022-11-20T22:33:28;7.30;99.90
15184;DHT22;7693;49.266;7.104;2022-11-20T22:36:02;7.30;99.90
15184;DHT22;7693;49.266;7.104;2022-11-20T22:38:28;7.20;99.90
15184;DHT22;7693;49.266;7.104;2022-11-20T22:40:59;7.30;99.90
15184;DHT22;7693;49.266;7.104;2022-11-20T22:43:25;7.30;99.90
15184;DHT22;7693;49.266;7.104;2022-11-20T22:45:50;7.30;99.90
15184;DHT22;7693;49.266;7.104;2022-11-20T22:48:16;7.30;99.90
15184;DHT22;7693;49.266;7.104;2022-11-20T22:50:42;7.30;99.90
15184;DHT22;7693;49.266;7.104;2022-11-20T22:53:07;7.40;99.90
15184;DHT22;7693;49.266;7.104;2022-11-20T22:55:33;7.40;99.90
15184;DHT22;7693;49.266;7.104;2022-11-20T22:57:59;7.40;99.90
15184;DHT22;7693;49.266;7.104;2022-11-20T23:00:24;7.40;99.90
15184;DHT22;7693;49.266;7.104;2022-11-20T23:02:50;7.40;99.90
15184;DHT22;7693;49.266;7.104;2022-11-20T23:05:15;7.40;99.90
15184;DHT22;7693;49.266;7.104;2022-11-20T23:07:41;7.50;99.90
15184;DHT22;7693;49.266;7.104;2022-11-20T23:10:08;7.50;99.90
15184;DHT22;7693;49.266;7.104;2022-11-20T23:12:34;7.50;99.90
15184;DHT22;7693;49.266;7.104;2022-11-20T23:14:59;7.50;99.90
15184;DHT22;7693;49.266;7.104;2022-11-20T23:17:25;7.50;99.90
15184;DHT22;7693;49.266;7.104;2022-11-20T23:19:50;7.50;99.90
15184;DHT22;7693;49.266;7.104;2022-11-20T23:22:16;7.50;99.90
15184;DHT22;7693;49.266;7.104;2022-11-20T23:24:42;7.50;99.90
15184;DHT22;7693;49.266;7.104;2022-11-20T23:27:07;7.50;99.90
15184;DHT22;7693;49.266;7.104;2022-11-20T23:29:33;7.50;99.90
15184;DHT22;7693;49.266;7.104;2022-11-20T23:31:58;7.40;99.90
15184;DHT22;7693;49.266;7.104;2022-11-20T23:34:24;7.40;99.90
15184;DHT22;7693;49.266;7.104;2022-11-20T23:36:49;7.40;99.90
15184;DHT22;7693;49.266;7.104;2022-11-20T23:39:15;7.50;99.90
15184;DHT22;7693;49.266;7.104;2022-11-20T23:41:41;7.40;99.90
15184;DHT22;7693;49.266;7.104;2022-11-20T23:44:06;7.50;99.90
